Purcell, MO (64857)

05:20 AM CST del 25 Febbraio 2017 (GMT -0600)
Joplin Regional | | Change Station

Alt. 981 ft 37.15 °N, 94.50 °W | Updated 27 minutes ago

Sereno
Sereno
23 °F
Sembra 15 °F
N
7
Vento Variabile Vento da Ovest

Oggi
Massima -- | Minima -- °F
--% Possibilità di precip.
Ieri
Massima -- | Minima -- °F
Precip. -- in
Pressione 30.17 in
Visibilità 10.0 miglia
Nuvole Sereno
Raffreddamento del vento 15 °F
Punto di rugiada 18 °F
Umidità 81%
Piovosità 0.00 in
Spessore del manto nevoso Non disponibile.
6:53 AM 6:08 PM
Luna calante, 2% visible
METAR KJLN 251053Z AUTO 28006KT 10SM CLR M05/M08 A3014 RMK AO2 SLP215 T10501078
Pressione 30.17 in
Visibilità 10.0 miglia
Nuvole Sereno
Raffreddamento del vento 15 °F
Punto di rugiada 18 °F
Umidità 81%
Piovosità 0.00 in
Spessore del manto nevoso Non disponibile.
6:53 AM 6:08 PM
Luna calante, 2% visible
METAR KJLN 251053Z AUTO 28006KT 10SM CLR M05/M08 A3014 RMK AO2 SLP215 T10501078

Get Your Daily Forecast Email!

Thanks for signing up!

Be on the lookout for a verification email in your inbox.

You'll start receiving the daily forecast at 8 AM.

×

10-Day Weather Forecast

Almanac

Astronomia

Feb. 25, 2017 Alba Tramonto
Ora attuale
Crepuscolo civile
Crepuscolo nautico
Crepuscolo astronomico
Luna
Estensione della luce visibile
Lunghezza del giorno
Tomorrow will be .
, % of the Moon is Illuminated

Gli estremi di oggi

State Highs State Lows

Community

WunderPhotos

Upload Photos

1,962,540 foto caricate!

WunderBlog® & News

Nearby

Qualità dell'aria

  Qualità dell'aria Indice AQ Inquinante
Not available.

Profondità neve

Stazione Profondità Altitudine

Attività sismica

Città  Distanza Mag. Data & Ora
Minimo Magnitudo Mostrato è 2.5.

Temperature delle acque costiere

Località Temperatura

Stations

Stazioni meteo nelle vicinanze

Ubicazione della stazione Temp. Raffreddamento del vento Punto di rugiada Umidità Vento Precip. Alt. Aggiornato Tipo
                   

Watches & Warnings

There are currently no watches in effect.